Monday, June 25, 2018, 9:32 AM EDT
Back to Local

KBED, Bedford Hanscom Field

Location: Concord, MA, United States Lat: 42.467
Local Time: 9:32 AM EDT (13:32 GMT) Lon: -71.3
Time Zone: US/Eastern Elev: 134 ft

Show me the last for .
Show Decoded

2018-06-25 09:23 METAR KBED 251323Z 31010KT 10SM SCT018 BKN037 21/17 A2987 RMK AO2 T02060167 =
2018-06-25 08:56 METAR KBED 251256Z 31008G19KT 10SM BKN015 22/18 A2986 RMK AO2 SLP122 T02170178 =
2018-06-25 08:26 METAR KBED 251226Z 31010G16KT 10SM BKN015 21/17 A2986 RMK AO2 T02060172 =
2018-06-25 07:56 METAR KBED 251156Z 32009KT 10SM FEW015 FEW200 20/17 A2984 RMK AO2 SLP115 60008
                 70070 T02000172 10200 20172 53008 =
2018-06-25 06:56 METAR KBED 251056Z 30006KT 10SM FEW005 FEW250 18/17 A2982 RMK AO2 SLP110
                 T01830172 =
2018-06-25 06:53 METAR KBED 251053Z 30006KT 10SM FEW005 FEW250 18/17 A2982 RMK AO2 =
2018-06-25 05:56 METAR KBED 250956Z AUTO 31005KT 10SM BKN110 17/17 A2981 RMK AO2 RAE17 SLP107
                 P0000 T01720167 =
2018-06-25 04:56 METAR KBED 250856Z AUTO 35006KT 10SM -RA SCT013 BKN050 OVC090 18/17 A2978 RMK
                 AO2 SLP095 P0001 60008 T01780172 50013 =
2018-06-25 04:46 METAR KBED 250846Z AUTO 34006KT 10SM -RA SCT009 BKN044 OVC060 18/17 A2979 RMK
                 AO2 P0000 T01780172 =
2018-06-25 04:30 METAR KBED 250830Z AUTO 32008KT 6SM -RA BR BKN008 OVC033 18/17 A2980 RMK AO2 CIG
                 006V012 P0000 T01780172 =
2018-06-25 04:26 METAR KBED 250826Z AUTO 32009KT 6SM -RA BR SCT008 SCT012 OVC032 18/17 A2979 RMK
                 AO2 P0000 T01780172 =
2018-06-25 03:56 METAR KBED 250756Z AUTO 33008KT 6SM -RA BR SCT023 OVC028 18/17 A2978 RMK AO2
                 RAB0658 SLP096 P0003 T01830172 =
2018-06-25 03:26 METAR KBED 250726Z AUTO 34008KT 6SM -RA BR FEW007 SCT011 OVC020 18/18 A2977 RMK
                 AO2 RAB0658 P0002 T01830178 =
2018-06-25 03:18 METAR KBED 250718Z AUTO 35009KT 4SM -RA BR FEW006 BKN011 OVC018 19/18 A2977 RMK
                 AO2 RAB0658 P0002 T01890178 =
2018-06-25 02:56 METAR KBED 250656Z AUTO 35009KT 9SM BKN005 OVC013 19/18 A2976 RMK AO2 RAE33 CIG
                 004V009 SLP088 P0004 T01890183 =
2018-06-25 02:22 METAR KBED 250622Z AUTO 35005KT 9SM -RA BKN005 BKN043 OVC110 19/18 A2975 RMK AO2
                 LTG DSNT E P0004 T01940183 =
2018-06-25 02:14 METAR KBED 250614Z AUTO 35005KT 6SM RA BR SCT007 BKN039 OVC110 19/19 A2975 RMK
                 AO2 LTG DSNT E P0004 T01940189 =
2018-06-25 01:56 METAR KBED 250556Z AUTO 36006KT 4SM VCTS RA BR BKN005 BKN025 OVC075 19/19 A2975
                 RMK AO2 LTG DSNT E TSB07E46 SLP083 P0037 60039 T01940189 10211 20194 56006 =
2018-06-25 01:52 METAR KBED 250552Z AUTO 01006KT 4SM VCTS RA BR SCT007 BKN037 OVC075 19/19 A2975
                 RMK AO2 LTG DSNT E TSB07E46 P0036 =
2018-06-25 01:44 METAR KBED 250544Z AUTO 35007KT 3SM TSRA BR SCT007 BKN030 OVC090 19/19 A2975 RMK
                 AO2 TSB07 P0035 T01940194 =
2018-06-25 01:35 METAR KBED 250535Z AUTO 32005KT 2SM TSRA BR SCT005 BKN011 OVC028 19/19 A2976 RMK
                 AO2 LTG DSNT NE AND SW TSB07 P0032 T01940194 =
2018-06-25 01:26 METAR KBED 250526Z AUTO 03008KT 1 1/4SM R11/5500VP6000FT +TSRA BR SCT003 SCT012
                 OVC026 19/19 A2974 RMK AO2 LTG DSNT NE AND SW TSB07 P0026 T01940194 =
2018-06-25 01:19 METAR KBED 250519Z AUTO 35007KT 1 3/4SM R11/5500VP6000FT +TSRA BR BKN003 BKN010
                 OVC024 20/19 A2975 RMK AO2 LTG DSNT NE AND SW AND W TSB07 P0012 T02000194 =
2018-06-25 01:13 METAR KBED 250513Z AUTO 35009KT 4SM -TSRA BR BKN003 BKN007 OVC010 20/19 A2974
                 RMK AO2 LTG DSNT NE AND SW AND W TSB07 P0002 T02000194 =
2018-06-25 01:03 METAR KBED 250503Z AUTO 36006KT 4SM VCTS -RA BR BKN004 OVC012 20/19 A2975 RMK
                 AO2 LTG DSNT W P0000 T02000194 =
2018-06-25 00:56 METAR KBED 250456Z AUTO 35007KT 5SM VCTS -RA BR SCT004 BKN012 OVC030 21/20 A2975
                 RMK AO2 LTG DSNT W RAB25 SLP084 P0001 T02060200 402670133 =
2018-06-25 00:39 METAR KBED 250439Z AUTO 00000KT 7SM -RA SCT004 BKN014 OVC031 21/20 A2975 RMK AO2
                 LTG DSNT W RAB25 P0001 T02060200 =
2018-06-25 00:30 METAR KBED 250430Z AUTO 00000KT 8SM -RA FEW004 BKN016 OVC031 21/20 A2975 RMK AO2
                 LTG DSNT W AND NW RAB25 P0001 T02060200 =
2018-06-25 00:24 METAR KBED 250424Z AUTO 00000KT 8SM BKN014 OVC018 21/20 A2975 RMK AO2 LTG DSNT W
                 AND NW T02060200 =
2018-06-24 23:56 METAR KBED 250356Z AUTO 15003KT 6SM BR OVC018 21/21 A2976 RMK AO2 RAB40E50
                 SLP089 P0000 T02060206 =
2018-06-24 23:37 METAR KBED 250337Z AUTO 00000KT 7SM SCT013 BKN018 OVC026 21/20 A2977 RMK AO2
                 T02060200 =
2018-06-24 22:56 METAR KBED 250256Z AUTO 36003KT 6SM BR OVC013 21/21 A2976 RMK AO2 SLP089 60001
                 T02110206 58002 =
2018-06-24 22:53 METAR KBED 250253Z AUTO 02003KT 6SM BR OVC013 21/21 A2976 RMK AO2 =
2018-06-24 22:18 METAR KBED 250218Z 00000KT 8SM FEW005 BKN027 OVC038 21/21 A2977 RMK AO2
                 T02110206 =
2018-06-24 22:03 METAR KBED 250203Z 00000KT 7SM FEW019 BKN025 OVC030 21/21 A2978 RMK AO2
                 T02110206 =
2018-06-24 21:56 METAR KBED 250156Z 00000KT 7SM SCT019 BKN030 OVC037 21/21 A2979 RMK AO2
                 RAB0058E17 SLP098 P0000 T02110206 =
2018-06-24 20:56 METAR KBED 250056Z 14003KT 4SM BR SCT006 BKN070 BKN120 21/21 A2977 RMK AO2 RAE31
                 SLP091 P0001 T02110206 =
2018-06-24 20:27 METAR KBED 250027Z 00000KT 7SM -RA FEW006 OVC070 21/21 A2978 RMK AO2 P0001
                 T02110206 =
2018-06-24 19:56 METAR KBED 242356Z 22003KT 4SM -RA BR FEW016 BKN070 OVC090 21/21 A2979 RMK AO2
                 SLP097 P0006 60023 T02110206 10267 20211 51007 =
2018-06-24 19:47 METAR KBED 242347Z 22004KT 4SM -RA BR SCT018 BKN028 OVC120 21/21 A2979 RMK AO2
                 P0006 T02110206 =
2018-06-24 18:56 METAR KBED 242256Z 14005KT 5SM RA BR SCT029 BKN048 OVC110 21/20 A2978 RMK AO2
                 SLP094 P0015 T02110200 =
2018-06-24 18:53 METAR KBED 242253Z 15004KT 5SM RA BR BKN029 BKN046 OVC110 21/20 A2978 RMK AO2
                 P0015 =
2018-06-24 17:56 METAR KBED 242156Z 33003KT 4SM RA SCT036 BKN048 OVC055 23/19 A2977 RMK AO2 RAB49
                 SLP091 P0002 T02330194 =
2018-06-24 17:30 METAR KBED 242130Z 22006KT 10SM BKN037 BKN043 OVC090 26/19 A2975 RMK AO2 VIRGA W
                 T02560189 =
2018-06-24 16:56 METAR KBED 242056Z 19006KT 10SM BKN070 OVC095 26/18 A2975 RMK AO2 SLP086
                 T02610183 58006 =
2018-06-24 15:56 METAR KBED 241956Z 22005KT 10SM SCT035 BKN080 BKN250 26/18 A2976 RMK AO2 SLP088
                 VCSH T02610183 =
2018-06-24 14:56 METAR KBED 241856Z 20007KT 10SM BKN030 26/19 A2977 RMK AO2 SLP092 T02610189 =
2018-06-24 14:03 METAR KBED 241803Z 22004KT 10SM BKN032 25/18 A2977 RMK AO2 T02500183 =
2018-06-24 13:56 METAR KBED 241756Z 18005KT 10SM OVC020 25/18 A2977 RMK AO2 SLP092 T02500183
                 10256 20161 58015 =
2018-06-24 12:56 METAR KBED 241656Z 24006KT 10SM OVC020 24/18 A2979 RMK AO2 SLP100 T02440183 =
2018-06-24 11:56 METAR KBED 241556Z 18003KT 10SM OVC016 23/18 A2980 RMK AO2 SLP104 T02280178 =
2018-06-24 11:49 METAR KBED 241549Z VRB03KT 10SM OVC016 22/18 A2980 RMK AO2 T02220178 =
2018-06-24 10:56 METAR KBED 241456Z 24003KT 10SM OVC012 21/17 A2981 RMK AO2 SLP107 T02060172
                 51003 =
2018-06-24 09:56 METAR KBED 241356Z 23006KT 10SM OVC010 19/16 A2981 RMK AO2 SLP108 T01890161 =
2018-06-24 09:49 METAR KBED 241349Z 22006KT 10SM OVC010 19/17 A2981 RMK AO2 T01890167 =

Support USWX by starting your Amazon purchase here.